createdAt,value
2023-02-11T00:01:40.078Z,91.55
2023-02-11T00:04:08.459Z,91.49
2023-02-11T00:06:37.053Z,91.63
2023-02-11T00:09:06.449Z,91.59
2023-02-11T00:11:34.898Z,91.30
2023-02-11T00:14:07.784Z,91.59
2023-02-11T00:16:36.324Z,91.58
2023-02-11T00:19:06.673Z,91.45
2023-02-11T00:21:35.155Z,91.44
2023-02-11T00:24:03.890Z,91.47
2023-02-11T00:26:34.703Z,91.33
2023-02-11T00:29:05.210Z,91.37
2023-02-11T00:31:34.609Z,91.17
2023-02-11T00:34:03.098Z,91.15
2023-02-11T00:36:31.788Z,91.33
2023-02-11T00:39:00.773Z,91.28
2023-02-11T00:41:29.894Z,91.14
2023-02-11T00:43:58.319Z,91.18
2023-02-11T00:46:26.777Z,91.09
2023-02-11T00:48:57.690Z,90.96
2023-02-11T00:51:28.014Z,91.09
2023-02-11T00:53:56.471Z,90.90
2023-02-11T00:56:24.868Z,91.04
2023-02-11T00:58:54.037Z,90.58
2023-02-11T01:01:22.577Z,90.54
2023-02-11T01:03:51.112Z,90.80
2023-02-11T01:06:19.918Z,90.76
2023-02-11T01:08:48.469Z,90.89
2023-02-11T01:11:20.977Z,90.82
2023-02-11T01:13:51.103Z,90.92
2023-02-11T01:16:21.230Z,91.00
2023-02-11T01:18:49.691Z,91.14
2023-02-11T01:21:18.778Z,91.16
2023-02-11T01:23:47.115Z,91.09
2023-02-11T01:26:15.828Z,90.99
2023-02-11T01:28:44.521Z,91.07
2023-02-11T01:31:13.230Z,90.87
2023-02-11T01:33:41.877Z,90.98
2023-02-11T01:36:11.812Z,90.95
2023-02-11T01:38:41.142Z,90.76
2023-02-11T01:41:14.413Z,90.69
2023-02-11T01:43:47.945Z,90.86
2023-02-11T01:46:38.157Z,90.84
2023-02-11T01:49:14.917Z,90.81
2023-02-11T01:51:58.540Z,91.05
2023-02-11T01:54:52.008Z,91.09
2023-02-11T01:57:26.593Z,91.07
2023-02-11T02:00:36.270Z,91.00
2023-02-11T02:03:22.506Z,91.12
2023-02-11T02:06:11.008Z,90.97
2023-02-11T02:08:47.049Z,90.99
2023-02-11T02:11:15.868Z,90.98
2023-02-11T02:13:44.895Z,91.04
2023-02-11T02:16:17.106Z,90.95
2023-02-11T02:19:10.305Z,90.98
2023-02-11T02:22:35.227Z,91.03
2023-02-11T02:25:43.566Z,91.13
2023-02-11T02:28:33.851Z,91.21
2023-02-11T02:31:25.972Z,91.25
2023-02-11T02:34:09.503Z,91.15
2023-02-11T02:36:47.853Z,91.21
2023-02-11T02:39:26.288Z,91.44
2023-02-11T02:41:56.684Z,91.37
2023-02-11T02:44:26.012Z,91.46
2023-02-11T02:46:54.577Z,91.50
2023-02-11T02:49:22.896Z,91.48
2023-02-11T02:52:12.080Z,91.63
2023-02-11T02:55:04.946Z,91.40
2023-02-11T02:57:52.054Z,91.38
2023-02-11T03:01:07.288Z,91.26
2023-02-11T03:04:22.685Z,91.32
2023-02-11T03:07:06.822Z,91.25
2023-02-11T03:09:45.820Z,91.28
2023-02-11T03:12:15.661Z,91.29
2023-02-11T03:14:45.666Z,91.19
2023-02-11T03:17:15.854Z,91.15
2023-02-11T03:19:48.211Z,91.20
2023-02-11T03:22:23.017Z,91.05
2023-02-11T03:24:51.701Z,91.17
2023-02-11T03:27:31.638Z,91.15
2023-02-11T03:30:13.497Z,91.23
2023-02-11T03:32:48.238Z,91.09
2023-02-11T03:35:42.102Z,91.12
2023-02-11T03:38:26.303Z,90.92
2023-02-11T03:40:56.417Z,91.06
2023-02-11T03:43:50.921Z,91.11
2023-02-11T03:46:25.268Z,90.87
2023-02-11T03:48:59.390Z,91.03
2023-02-11T03:51:30.230Z,91.09
2023-02-11T03:54:04.757Z,91.36
2023-02-11T03:56:40.948Z,91.43
2023-02-11T03:59:09.439Z,91.25
2023-02-11T04:01:37.878Z,91.01
2023-02-11T04:04:06.410Z,91.15
2023-02-11T04:06:34.851Z,91.09
2023-02-11T04:09:04.335Z,90.91
2023-02-11T04:11:32.767Z,91.13
2023-02-11T04:14:01.429Z,91.09
2023-02-11T04:16:31.061Z,91.17
2023-02-11T04:18:59.485Z,91.13
2023-02-11T04:21:27.906Z,91.22
2023-02-11T04:23:56.293Z,91.20
2023-02-11T04:26:24.639Z,90.99
2023-02-11T04:28:52.992Z,91.12
2023-02-11T04:31:21.418Z,91.01
2023-02-11T04:33:49.781Z,90.98
2023-02-11T04:36:18.230Z,91.16
2023-02-11T04:38:46.568Z,91.05
2023-02-11T04:41:14.888Z,91.05
2023-02-11T04:43:43.333Z,90.95
2023-02-11T04:46:11.720Z,91.03
2023-02-11T04:48:40.062Z,91.16
2023-02-11T04:51:08.379Z,91.08
2023-02-11T04:53:36.804Z,91.14
2023-02-11T04:56:05.304Z,91.24
2023-02-11T05:01:35.096Z,91.31
2023-02-11T05:04:03.848Z,90.97
2023-02-11T05:06:32.472Z,91.14
2023-02-11T05:09:01.341Z,91.17
2023-02-11T05:11:29.794Z,91.17
2023-02-11T05:13:58.155Z,90.90
2023-02-11T05:16:26.730Z,90.98
2023-02-11T05:18:55.900Z,91.17
2023-02-11T05:21:24.591Z,91.30
2023-02-11T05:23:53.008Z,91.23
2023-02-11T05:26:21.501Z,91.35
2023-02-11T05:28:50.040Z,91.25
2023-02-11T05:31:18.706Z,91.52
2023-02-11T05:33:47.379Z,91.35
2023-02-11T05:36:16.940Z,91.54
2023-02-11T05:38:45.642Z,91.49
2023-02-11T05:41:14.732Z,91.77
2023-02-11T05:43:43.283Z,91.59
2023-02-11T05:46:11.821Z,91.75
2023-02-11T05:48:40.337Z,91.83
2023-02-11T05:51:08.851Z,91.78
2023-02-11T05:53:37.230Z,91.91
2023-02-11T05:56:06.552Z,91.87
2023-02-11T05:58:35.066Z,91.85
2023-02-11T06:01:03.631Z,91.76
2023-02-11T06:03:32.540Z,91.68
2023-02-11T06:06:01.074Z,91.55
2023-02-11T06:08:29.509Z,91.75
2023-02-11T06:10:58.100Z,91.65
2023-02-11T06:13:26.504Z,91.35
2023-02-11T06:16:03.218Z,91.36
2023-02-11T06:18:33.599Z,91.22
2023-02-11T06:21:02.207Z,91.30
2023-02-11T06:23:30.710Z,91.06
2023-02-11T06:26:08.499Z,91.11
2023-02-11T06:28:38.768Z,90.95
2023-02-11T06:31:09.957Z,90.91
2023-02-11T06:33:39.243Z,90.78
2023-02-11T06:36:22.768Z,90.61
2023-02-11T06:38:52.319Z,90.48
2023-02-11T06:41:21.589Z,90.41
2023-02-11T06:43:50.811Z,90.23
2023-02-11T06:46:19.925Z,90.41
2023-02-11T06:48:48.772Z,90.30
2023-02-11T06:51:17.392Z,90.16
2023-02-11T06:53:47.044Z,90.42
2023-02-11T06:56:24.632Z,90.17
2023-02-11T06:58:58.031Z,90.03
2023-02-11T07:01:31.432Z,90.08
2023-02-11T07:04:05.162Z,89.94
2023-02-11T07:06:35.645Z,89.97
2023-02-11T07:09:08.640Z,89.60
2023-02-11T07:11:37.016Z,89.70
2023-02-11T07:14:08.809Z,89.38
2023-02-11T07:16:41.680Z,89.47
2023-02-11T07:19:12.818Z,89.26
2023-02-11T07:21:41.244Z,89.20
2023-02-11T07:24:11.256Z,89.14
2023-02-11T07:26:40.634Z,89.03
2023-02-11T07:29:09.343Z,89.01
2023-02-11T07:31:38.145Z,88.96
2023-02-11T07:34:07.352Z,88.70
2023-02-11T07:36:36.871Z,88.55
2023-02-11T07:39:05.303Z,88.53
2023-02-11T07:41:37.976Z,88.39
2023-02-11T07:44:07.367Z,88.26
2023-02-11T07:46:37.010Z,88.12
2023-02-11T07:49:05.565Z,88.05
2023-02-11T07:51:34.048Z,87.69
2023-02-11T07:54:03.250Z,87.47
2023-02-11T07:56:33.501Z,87.47
2023-02-11T07:59:04.703Z,87.33
2023-02-11T08:01:34.004Z,87.26
2023-02-11T08:04:04.571Z,87.27
2023-02-11T08:06:35.831Z,87.29
2023-02-11T08:09:07.525Z,87.24
2023-02-11T08:11:36.345Z,87.34
2023-02-11T08:14:05.134Z,87.14
2023-02-11T08:16:36.507Z,87.21
2023-02-11T08:19:12.357Z,87.32
2023-02-11T08:21:41.392Z,87.28
2023-02-11T08:24:10.570Z,87.42
2023-02-11T08:26:39.139Z,87.55
2023-02-11T08:29:14.246Z,87.52
2023-02-11T08:31:47.264Z,87.70
2023-02-11T08:34:19.098Z,87.82
2023-02-11T08:36:48.620Z,88.04
2023-02-11T08:39:22.321Z,88.03
2023-02-11T08:41:56.973Z,88.15
2023-02-11T08:44:25.776Z,88.08
2023-02-11T08:46:54.159Z,87.99
2023-02-11T08:49:23.070Z,88.26
2023-02-11T08:51:51.495Z,87.91
2023-02-11T08:54:19.898Z,87.95
2023-02-11T08:56:52.060Z,88.22
2023-02-11T08:59:21.090Z,88.42
2023-02-11T09:01:50.119Z,88.58
2023-02-11T09:04:19.209Z,88.72
2023-02-11T09:06:47.838Z,88.89
2023-02-11T09:09:16.832Z,88.95
2023-02-11T09:11:46.133Z,89.01
2023-02-11T09:14:21.838Z,89.07
2023-02-11T09:16:53.209Z,89.16
2023-02-11T09:19:23.179Z,89.33
2023-02-11T09:21:51.702Z,89.19
2023-02-11T09:24:24.207Z,89.36
2023-02-11T09:26:52.799Z,89.42
2023-02-11T09:29:21.379Z,89.37
2023-02-11T09:31:50.361Z,89.31
2023-02-11T09:34:18.896Z,89.38
2023-02-11T09:36:47.160Z,89.44
2023-02-11T09:39:20.241Z,89.54
2023-02-11T09:42:00.647Z,89.49
2023-02-11T09:44:34.810Z,89.49
2023-02-11T09:47:17.007Z,89.62
2023-02-11T09:49:52.806Z,89.73
2023-02-11T09:52:33.154Z,89.84
2023-02-11T09:55:05.539Z,89.91
2023-02-11T09:57:37.010Z,90.15
2023-02-11T10:00:43.384Z,90.18
2023-02-11T10:03:30.318Z,90.34
2023-02-11T10:06:32.470Z,90.36
2023-02-11T10:09:34.606Z,90.55
2023-02-11T10:12:45.862Z,90.47
2023-02-11T10:15:38.396Z,90.63
2023-02-11T10:18:28.614Z,90.59
2023-02-11T10:21:23.806Z,90.64
2023-02-11T10:23:56.826Z,90.77
2023-02-11T10:26:31.077Z,90.86
2023-02-11T10:29:05.501Z,90.90
2023-02-11T10:31:45.067Z,90.93
2023-02-11T10:34:14.915Z,90.93
2023-02-11T10:36:45.077Z,90.84
2023-02-11T10:39:23.422Z,91.12
2023-02-11T10:42:11.550Z,91.17
2023-02-11T10:44:57.494Z,91.11
2023-02-11T10:47:32.864Z,91.01
2023-02-11T10:50:03.734Z,91.05
2023-02-11T10:52:32.209Z,91.15
2023-02-11T10:55:05.120Z,91.08
2023-02-11T10:57:44.662Z,91.04
2023-02-11T11:00:38.909Z,91.11
2023-02-11T11:03:34.444Z,91.11
2023-02-11T11:06:06.762Z,91.02
2023-02-11T11:08:49.017Z,91.16
2023-02-11T11:11:21.644Z,91.12
2023-02-11T11:13:52.920Z,91.29
2023-02-11T11:16:24.332Z,91.40
2023-02-11T11:19:16.482Z,91.42
2023-02-11T11:21:51.533Z,91.52
2023-02-11T11:24:35.155Z,91.51
2023-02-11T11:27:05.216Z,91.65
2023-02-11T11:29:40.361Z,91.86
2023-02-11T11:32:27.449Z,91.89
2023-02-11T11:35:11.516Z,91.97
2023-02-11T11:37:54.372Z,92.36
2023-02-11T11:40:29.661Z,92.81
2023-02-11T11:43:07.408Z,93.30
2023-02-11T11:45:35.921Z,93.77
2023-02-11T11:48:22.578Z,94.11
2023-02-11T11:51:16.122Z,94.23
2023-02-11T11:54:02.891Z,94.31
2023-02-11T11:56:42.670Z,94.16
2023-02-11T11:59:15.128Z,94.05
2023-02-11T12:02:35.332Z,94.04
2023-02-11T12:05:26.812Z,94.29
2023-02-11T12:08:13.944Z,94.51
2023-02-11T12:11:03.358Z,94.52
2023-02-11T12:14:00.513Z,94.58
2023-02-11T12:16:53.177Z,94.52
2023-02-11T12:19:31.298Z,94.66
2023-02-11T12:22:02.838Z,94.63
2023-02-11T12:25:05.362Z,94.67
2023-02-11T12:28:29.753Z,94.62
2023-02-11T12:31:39.930Z,94.66
2023-02-11T12:34:42.030Z,94.91
2023-02-11T12:37:36.100Z,95.23
2023-02-11T12:40:25.649Z,95.44
2023-02-11T12:43:18.292Z,95.60
2023-02-11T12:46:15.987Z,95.65
2023-02-11T12:49:06.189Z,95.83
2023-02-11T12:52:02.487Z,95.86
2023-02-11T12:54:43.778Z,95.98
2023-02-11T12:57:30.118Z,96.07
2023-02-11T13:00:04.918Z,96.02
2023-02-11T13:03:18.120Z,96.25
2023-02-11T13:06:03.602Z,96.22
2023-02-11T13:09:49.805Z,96.33
2023-02-11T13:12:38.001Z,96.34
2023-02-11T13:15:16.450Z,96.44
2023-02-11T13:18:04.457Z,96.34
2023-02-11T13:20:52.158Z,96.50
2023-02-11T13:23:48.272Z,96.46
2023-02-11T13:26:29.606Z,96.49
2023-02-11T13:29:17.901Z,96.50
2023-02-11T13:32:07.437Z,96.32
2023-02-11T13:34:41.909Z,96.38
2023-02-11T13:37:31.839Z,96.46
2023-02-11T13:40:04.713Z,96.43
2023-02-11T13:42:53.675Z,96.49
2023-02-11T13:45:41.545Z,96.50
2023-02-11T13:48:24.013Z,96.57
2023-02-11T13:51:02.753Z,96.65
2023-02-11T13:53:47.063Z,96.77
2023-02-11T13:56:30.154Z,96.60
2023-02-11T13:59:03.016Z,96.80
2023-02-11T14:02:14.899Z,96.91
2023-02-11T14:05:23.244Z,97.01
2023-02-11T14:08:33.445Z,96.92
2023-02-11T14:11:36.340Z,97.05
2023-02-11T14:14:27.939Z,96.98
2023-02-11T14:17:02.268Z,97.19
2023-02-11T14:19:45.093Z,97.22
2023-02-11T14:22:28.705Z,97.28
2023-02-11T14:25:05.505Z,97.33
2023-02-11T14:28:01.533Z,97.39
2023-02-11T14:30:44.343Z,97.52
2023-02-11T14:33:43.043Z,97.62
2023-02-11T14:36:43.562Z,97.94
2023-02-11T14:39:27.774Z,98.10
2023-02-11T14:42:02.426Z,98.59
2023-02-11T14:44:34.186Z,98.54
2023-02-11T14:47:03.130Z,98.78
2023-02-11T14:49:37.968Z,98.79
2023-02-11T14:52:29.644Z,99.10
2023-02-11T14:55:26.976Z,99.42
2023-02-11T14:58:13.851Z,99.69
2023-02-11T15:00:56.202Z,99.66
2023-02-11T15:03:36.614Z,100.00
2023-02-11T15:06:24.261Z,100.00
2023-02-11T15:09:16.668Z,100.00
2023-02-11T15:11:48.997Z,100.00
2023-02-11T15:14:30.020Z,100.00
2023-02-11T15:17:02.984Z,100.00
2023-02-11T15:19:38.379Z,100.00
2023-02-11T15:22:23.804Z,100.00
2023-02-11T15:25:03.885Z,100.00
2023-02-11T15:27:48.148Z,100.00
2023-02-11T15:30:22.572Z,100.00
2023-02-11T15:32:58.691Z,100.00
2023-02-11T15:35:31.383Z,100.00
2023-02-11T15:38:00.042Z,100.00
2023-02-11T15:40:35.221Z,100.00
2023-02-11T15:43:10.124Z,100.00
2023-02-11T15:46:02.115Z,100.00
2023-02-11T15:48:49.528Z,100.00
2023-02-11T15:51:21.827Z,100.00
2023-02-11T15:53:56.947Z,100.00
2023-02-11T15:56:43.757Z,100.00
2023-02-11T15:59:27.388Z,100.00
2023-02-11T16:01:58.933Z,100.00
2023-02-11T16:04:28.001Z,100.00
2023-02-11T16:06:56.585Z,100.00
2023-02-11T16:09:36.308Z,100.00
2023-02-11T16:12:29.263Z,100.00
2023-02-11T16:14:59.943Z,100.00
2023-02-11T16:17:29.811Z,100.00
2023-02-11T16:19:58.293Z,100.00
2023-02-11T16:22:35.304Z,100.00
2023-02-11T16:25:03.918Z,100.00
2023-02-11T16:27:41.062Z,100.00
2023-02-11T16:30:39.091Z,100.00
2023-02-11T16:33:11.177Z,100.00
2023-02-11T16:35:40.439Z,100.00
2023-02-11T16:38:08.843Z,100.00
2023-02-11T16:40:37.414Z,100.00
2023-02-11T16:43:05.935Z,100.00
2023-02-11T16:45:39.029Z,100.00
2023-02-11T16:48:09.626Z,100.00
2023-02-11T16:50:38.180Z,100.00
2023-02-11T16:53:06.651Z,100.00
2023-02-11T16:55:35.248Z,100.00
2023-02-11T16:58:03.687Z,100.00
2023-02-11T17:00:32.560Z,100.00
2023-02-11T17:03:01.017Z,100.00
2023-02-11T17:05:29.557Z,100.00
2023-02-11T17:07:58.142Z,100.00
2023-02-11T17:10:26.540Z,100.00
2023-02-11T17:12:54.925Z,100.00
2023-02-11T17:15:23.424Z,100.00
2023-02-11T17:17:51.853Z,100.00
2023-02-11T17:20:20.572Z,100.00
2023-02-11T17:22:48.980Z,100.00
2023-02-11T17:25:18.400Z,100.00
2023-02-11T17:27:46.865Z,100.00
2023-02-11T17:30:15.700Z,100.00
2023-02-11T17:32:44.106Z,100.00
2023-02-11T17:35:12.746Z,100.00
2023-02-11T17:37:41.166Z,100.00
2023-02-11T17:40:10.572Z,100.00
2023-02-11T17:42:38.967Z,100.00
2023-02-11T17:45:08.825Z,100.00
2023-02-11T17:47:37.276Z,100.00
2023-02-11T17:50:07.317Z,100.00
2023-02-11T17:52:36.730Z,100.00
2023-02-11T17:55:06.311Z,100.00
2023-02-11T17:57:35.314Z,100.00
2023-02-11T18:00:07.797Z,100.00
2023-02-11T18:02:36.173Z,100.00
2023-02-11T18:05:05.366Z,100.00
2023-02-11T18:07:33.756Z,100.00
2023-02-11T18:10:02.118Z,100.00
2023-02-11T18:12:30.541Z,100.00
2023-02-11T18:14:58.929Z,100.00
2023-02-11T18:17:27.514Z,100.00
2023-02-11T18:19:57.824Z,100.00
2023-02-11T18:22:26.464Z,100.00
2023-02-11T18:24:55.366Z,100.00
2023-02-11T18:27:23.833Z,100.00
2023-02-11T18:29:52.238Z,100.00
2023-02-11T18:32:20.602Z,100.00
2023-02-11T18:34:49.036Z,100.00
2023-02-11T18:37:17.418Z,100.00
2023-02-11T18:39:45.783Z,100.00
2023-02-11T18:42:14.127Z,100.00
2023-02-11T18:44:42.550Z,100.00
2023-02-11T18:47:10.883Z,100.00
2023-02-11T18:49:39.292Z,100.00
2023-02-11T18:52:07.601Z,100.00
2023-02-11T18:54:35.920Z,100.00
2023-02-11T18:57:04.334Z,100.00
2023-02-11T18:59:32.669Z,100.00
2023-02-11T19:02:01.053Z,100.00
2023-02-11T19:04:29.545Z,100.00
2023-02-11T19:07:03.174Z,100.00
2023-02-11T19:09:31.767Z,100.00
2023-02-11T19:12:01.955Z,100.00
2023-02-11T19:14:33.765Z,100.00
2023-02-11T19:17:06.791Z,100.00
2023-02-11T19:19:36.584Z,100.00
2023-02-11T19:22:09.199Z,100.00
2023-02-11T19:24:45.908Z,100.00
2023-02-11T19:27:24.389Z,100.00
2023-02-11T19:30:02.926Z,100.00
2023-02-11T19:32:31.597Z,100.00
2023-02-11T19:35:00.207Z,100.00
2023-02-11T19:37:28.907Z,100.00
2023-02-11T19:39:58.391Z,100.00
2023-02-11T19:42:27.728Z,100.00
2023-02-11T19:44:57.281Z,100.00
2023-02-11T19:47:27.823Z,100.00
2023-02-11T19:49:56.312Z,100.00
2023-02-11T19:52:26.320Z,100.00
2023-02-11T19:54:55.300Z,100.00
2023-02-11T19:57:23.753Z,100.00
2023-02-11T19:59:54.896Z,100.00
2023-02-11T20:02:23.635Z,100.00
2023-02-11T20:04:52.014Z,100.00
2023-02-11T20:07:21.452Z,100.00
2023-02-11T20:09:50.292Z,100.00
2023-02-11T20:12:18.691Z,100.00
2023-02-11T20:14:48.325Z,100.00
2023-02-11T20:17:17.677Z,100.00
2023-02-11T20:19:48.166Z,100.00
2023-02-11T20:22:16.870Z,100.00
2023-02-11T20:24:45.392Z,100.00
2023-02-11T20:27:13.776Z,100.00
2023-02-11T20:29:42.333Z,100.00
2023-02-11T20:32:11.083Z,100.00
2023-02-11T20:34:39.574Z,100.00
2023-02-11T20:37:08.345Z,100.00
2023-02-11T20:39:40.860Z,100.00
2023-02-11T20:42:11.784Z,100.00
2023-02-11T20:44:40.551Z,100.00
2023-02-11T20:47:09.163Z,100.00
2023-02-11T20:49:37.591Z,100.00
2023-02-11T20:52:06.033Z,100.00
2023-02-11T20:54:34.606Z,100.00
2023-02-11T20:57:03.070Z,100.00
2023-02-11T20:59:31.876Z,100.00
2023-02-11T21:02:01.630Z,100.00
2023-02-11T21:04:31.485Z,100.00
2023-02-11T21:07:03.230Z,100.00
2023-02-11T21:09:33.277Z,100.00
2023-02-11T21:12:02.666Z,100.00
2023-02-11T21:14:32.486Z,100.00
2023-02-11T21:17:03.314Z,100.00
2023-02-11T21:19:31.728Z,100.00
2023-02-11T21:22:01.721Z,100.00
2023-02-11T21:24:30.966Z,100.00
2023-02-11T21:27:00.728Z,100.00
2023-02-11T21:29:29.277Z,100.00
2023-02-11T21:31:57.711Z,100.00
2023-02-11T21:34:26.064Z,100.00
2023-02-11T21:36:54.537Z,100.00
2023-02-11T21:39:23.022Z,100.00
2023-02-11T21:41:52.191Z,100.00
2023-02-11T21:44:20.576Z,100.00
2023-02-11T21:46:48.957Z,100.00
2023-02-11T21:49:17.286Z,100.00
2023-02-11T21:51:45.625Z,100.00
2023-02-11T21:54:14.027Z,100.00
2023-02-11T21:56:42.390Z,100.00
2023-02-11T21:59:17.910Z,100.00
2023-02-11T22:01:46.602Z,100.00
2023-02-11T22:04:14.889Z,100.00
2023-02-11T22:06:43.375Z,100.00
2023-02-11T22:09:11.777Z,100.00
2023-02-11T22:11:40.122Z,100.00
2023-02-11T22:14:09.169Z,100.00
2023-02-11T22:16:37.655Z,100.00
2023-02-11T22:19:07.569Z,100.00
2023-02-11T22:21:36.370Z,100.00
2023-02-11T22:24:05.606Z,100.00
2023-02-11T22:26:34.007Z,100.00
2023-02-11T22:29:02.439Z,100.00
2023-02-11T22:31:33.921Z,100.00
2023-02-11T22:34:04.709Z,100.00
2023-02-11T22:36:39.554Z,100.00
2023-02-11T22:39:15.796Z,100.00
2023-02-11T22:41:46.849Z,100.00
2023-02-11T22:44:17.219Z,100.00
2023-02-11T22:46:45.617Z,100.00
2023-02-11T22:49:16.417Z,100.00
2023-02-11T22:51:45.641Z,100.00
2023-02-11T22:54:17.637Z,100.00
2023-02-11T22:56:50.965Z,100.00
2023-02-11T22:59:20.361Z,100.00
2023-02-11T23:01:49.090Z,100.00
2023-02-11T23:04:19.290Z,100.00
2023-02-11T23:06:47.831Z,100.00
2023-02-11T23:09:16.314Z,100.00
2023-02-11T23:11:44.757Z,100.00
2023-02-11T23:14:13.139Z,100.00
2023-02-11T23:16:41.508Z,100.00
2023-02-11T23:19:10.871Z,100.00
2023-02-11T23:21:39.725Z,100.00
2023-02-11T23:24:14.214Z,100.00
2023-02-11T23:26:44.146Z,100.00
2023-02-11T23:29:13.507Z,100.00
2023-02-11T23:31:45.941Z,100.00
2023-02-11T23:34:18.431Z,100.00
2023-02-11T23:36:46.735Z,100.00
2023-02-11T23:39:16.080Z,100.00
2023-02-11T23:41:45.521Z,100.00
2023-02-11T23:44:13.942Z,100.00
2023-02-11T23:46:42.293Z,100.00
2023-02-11T23:49:10.813Z,100.00
2023-02-11T23:51:39.116Z,100.00
2023-02-11T23:54:07.698Z,100.00
2023-02-11T23:56:37.580Z,100.00
2023-02-11T23:59:06.155Z,100.00
